Mont Saint Michel — FNMT — position and weather

sailwx.info

Track history (hours):
 
Tides and Currents Weather Stations Pressure Air Temp Water Temp Dewpoint Dewpoint Depression Visibility Wind Speed Wind Dir Waves Ship Positions

Mont Saint Michel

Last reported at 2014-Sep-19 21:34 UTC. Time now 2014-Sep-19 21:58 UTC.
Position N 50°43' W 001°01'.

Length 173 m; beam 29 m.

Type: Ship. MMSI: 227023100.

Date/timePositionNaut miles runAvg speedWind from/ knotsBaromVisibWave heightAir tempDewpointWater temp
2014-Sep-19 21:34N 50°43' W 001°01'6 6.2
2014-Sep-19 20:33N 50°49' W 001°06'0 0.0
2014-Sep-19 19:34N 50°49' W 001°06'0 0.0
2014-Sep-19 18:34N 50°49' W 001°06'5 4.5
2014-Sep-19 17:34N 50°44' W 001°04'1716.7
2014-Sep-19 16:33N 50°29' W 000°53'1717.0
2014-Sep-19 15:33N 50°13' W 000°44'2120.8
2014-Sep-19 14:33N 49°53' W 000°33'1313.1
2014-Sep-19 13:33N 49°41' W 000°25'1818.5
2014-Sep-19 12:33N 49°24' W 000°15'7 6.6
2014-Sep-19 11:34N 49°17' W 000°15'0 0.0
2014-Sep-19 10:33N 49°17' W 000°15'0 0.0
2014-Sep-19 09:33N 49°17' W 000°15'0 0.0
2014-Sep-19 08:33N 49°17' W 000°15'0 0.0
2014-Sep-19 07:33N 49°17' W 000°15'0 0.0
2014-Sep-19 06:33N 49°17' W 000°15'0 0.0
2014-Sep-19 05:33N 49°17' W 000°15'1010.1
2014-Sep-19 04:33N 49°27' W 000°17'1211.7
2014-Sep-19 03:33N 49°38' W 000°23'1212.0
2014-Sep-19 02:33N 49°50' W 000°29'1411.8
2014-Sep-19 01:20N 50°03' W 000°36'1113.8
2014-Sep-19 00:31N 50°14' W 000°42'1616.6
2014-Sep-18 23:33N 50°28' W 000°52'1616.4
2014-Sep-18 22:33N 50°44' W 001°02'6 5.6
2014-Sep-18 21:34N 50°49' W 001°06'0 0.0
2014-Sep-18 20:34N 50°49' W 001°06'4 3.6
2014-Sep-18 19:33N 50°45' W 001°05'1919.2
2014-Sep-18 18:33N 50°28' W 000°53'1919.2
2014-Sep-18 17:33N 50°10' W 000°42'1918.9
2014-Sep-18 16:33N 49°52' W 000°31'1918.5
2014-Sep-18 15:33N 49°35' W 000°22'1717.2
2014-Sep-18 14:33N 49°18' W 000°15'1 0.8
2014-Sep-18 13:33N 49°17' W 000°15'2 2.2
2014-Sep-18 12:33N 49°20' W 000°15'1918.6
2014-Sep-18 11:33N 49°37' W 000°25'1717.1
2014-Sep-18 10:32N 49°54' W 000°32'2318.2
2014-Sep-18 09:15N 50°15' W 000°45'1319.0
2014-Sep-18 08:33N 50°28' W 000°53'1919.1
2014-Sep-18 07:34N 50°45' W 001°05'4 3.6
2014-Sep-18 06:33N 50°49' W 001°06'0 0.1
2014-Sep-18 05:33N 50°49' W 001°06'1212.0
2014-Sep-18 04:33N 50°38' W 000°58'1110.8
2014-Sep-18 03:33N 50°27' W 000°52'1310.8
2014-Sep-18 02:22N 50°16' W 000°45'1010.8
2014-Sep-18 01:24N 50°06' W 000°39'911.1
2014-Sep-18 00:33N 49°57' W 000°35'1111.2
2014-Sep-17 23:33N 49°46' W 000°29'1111.2
2014-Sep-17 22:33N 49°36' W 000°23'1111.5
2014-Sep-17 21:33N 49°25' W 000°17'8 7.8
2014-Sep-17 20:33N 49°17' W 000°15'0 0.0
2014-Sep-17 19:33N 49°17' W 000°15'1010.4
2014-Sep-17 18:33N 49°28' W 000°18'1818.5
2014-Sep-17 17:33N 49°45' W 000°28'1918.9
2014-Sep-17 16:33N 50°03' W 000°38'1919.3
2014-Sep-17 15:33N 50°21' W 000°48'1919.2
2014-Sep-17 14:33N 50°39' W 000°59'1111.0
2014-Sep-17 13:33N 50°49' W 001°06'0 0.0
2014-Sep-17 12:33N 50°49' W 001°06'5 5.1
2014-Sep-17 11:34N 50°44' W 001°03'1717.3
2014-Sep-17 10:33N 50°28' W 000°54'2518.9
2014-Sep-17 09:15N 50°04' W 000°42'1319.5
2014-Sep-17 08:34N 49°52' W 000°34'2019.6
2014-Sep-17 07:34N 49°34' W 000°22'1716.9
2014-Sep-17 06:33N 49°17' W 000°15'0 0.0
2014-Sep-17 05:33N 49°17' W 000°15'0 0.1
2014-Sep-17 04:33N 49°17' W 000°15'1514.9
2014-Sep-17 03:33N 49°32' W 000°19'1716.6
2014-Sep-17 02:34N 49°47' W 000°29'1716.7
2014-Sep-17 01:33N 50°03' W 000°37'2216.7
2014-Sep-17 00:13N 50°24' W 000°50'1117.0
2014-Sep-16 23:33N 50°35' W 000°55'1514.7
2014-Sep-16 22:33N 50°48' W 001°07'1 1.2
2014-Sep-16 21:33N 50°49' W 001°06'0 0.0
2014-Sep-16 20:33N 50°49' W 001°06'4 4.1
2014-Sep-16 19:33N 50°45' W 001°05'1918.9
2014-Sep-16 18:33N 50°28' W 000°51'2019.5
2014-Sep-16 17:33N 50°10' W 000°40'1919.4
2014-Sep-16 16:33N 49°52' W 000°29'1919.0
2014-Sep-16 15:33N 49°33' W 000°20'1716.5
2014-Sep-16 14:33N 49°17' W 000°15'0 0.1
2014-Sep-16 13:33N 49°17' W 000°15'2 2.0
2014-Sep-16 12:33N 49°19' W 000°15'2020.3
2014-Sep-16 11:34N 49°39' W 000°25'2020.0
2014-Sep-16 10:33N 49°57' W 000°37'2820.1
2014-Sep-16 09:10N 50°23' W 000°51'1219.5
2014-Sep-16 08:33N 50°35' W 000°57'1515.2
2014-Sep-16 07:33N 50°49' W 001°06'0 0.1
2014-Sep-16 06:33N 50°49' W 001°06'0 0.0
2014-Sep-16 05:33N 50°49' W 001°06'1312.6
2014-Sep-16 04:33N 50°37' W 000°58'1111.2
2014-Sep-16 03:33N 50°27' W 000°52'1110.9
2014-Sep-16 02:33N 50°17' W 000°45'1111.4
2014-Sep-16 01:33N 50°06' W 000°40'1211.5
2014-Sep-16 00:33N 49°55' W 000°34'1111.5
2014-Sep-15 23:33N 49°44' W 000°27'1211.6
2014-Sep-15 22:33N 49°33' W 000°22'1211.8
2014-Sep-15 21:33N 49°22' W 000°15'5 4.7
2014-Sep-15 20:33N 49°17' W 000°15'0 0.0
2014-Sep-15 19:33N 49°17' W 000°15'0 0.0
2014-Sep-15 18:33N 49°17' W 000°15'0 0.0
2014-Sep-15 17:33N 49°17' W 000°15'0 0.0
2014-Sep-15 16:33N 49°17' W 000°15'0 0.0
2014-Sep-15 15:33N 49°17' W 000°15'0 0.0
2014-Sep-15 14:33N 49°17' W 000°15'0 0.0
2014-Sep-15 13:33N 49°17' W 000°15'3 2.8
2014-Sep-15 12:33N 49°20' W 000°14'1817.7
2014-Sep-15 11:33N 49°37' W 000°24'5719.1
2014-Sep-15 08:33N 50°31' W 000°54'1817.6
2014-Sep-15 07:33N 50°47' W 001°06'2 2.0
2014-Sep-15 06:33N 50°49' W 001°06'0 0.1
2014-Sep-15 05:34N 50°49' W 001°06'1312.7
2014-Sep-15 04:33N 50°37' W 000°58'1211.8
2014-Sep-15 03:33N 50°26' W 000°53'3411.3
2014-Sep-15 00:32N 49°54' W 000°31'1111.2
2014-Sep-14 23:33N 49°44' W 000°25'1111.2
2014-Sep-14 22:33N 49°34' W 000°19'1111.5
2014-Sep-14 21:33N 49°22' W 000°15'5 5.0
2014-Sep-14 20:33N 49°17' W 000°15'0 0.0
2014-Sep-14 19:32N 49°17' W 000°15'0 0.0
2014-Sep-14 18:33N 49°17' W 000°15'0 0.0
2014-Sep-14 17:33N 49°17' W 000°15'0 0.0
2014-Sep-14 16:32N 49°17' W 000°15'0 0.0
2014-Sep-14 15:33N 49°17' W 000°15'0 0.0
2014-Sep-14 14:33N 49°17' W 000°15'0 0.0
2014-Sep-14 13:33N 49°17' W 000°15'4 4.2
2014-Sep-14 12:33N 49°21' W 000°14'1616.1
2014-Sep-14 11:33N 49°37' W 000°23'5618.6
2014-Sep-14 08:33N 50°29' W 000°54'1817.8
2014-Sep-14 07:33N 50°45' W 001°05'4 3.8
2014-Sep-14 06:34N 50°49' W 001°06'0 0.1
2014-Sep-14 05:33N 50°49' W 001°06'1312.6
2014-Sep-14 04:33N 50°37' W 000°58'1211.7
2014-Sep-14 03:33N 50°26' W 000°52'6711.2
2014-Sep-13 21:34N 49°23' W 000°16'6 5.6
2014-Sep-13 20:33N 49°17' W 000°15'0 0.0
2014-Sep-13 19:33N 49°17' W 000°15'1211.9
2014-Sep-13 18:33N 49°29' W 000°19'1918.8
2014-Sep-13 17:34N 49°47' W 000°29'1918.4
2014-Sep-13 16:33N 50°04' W 000°39'1918.6
2014-Sep-13 15:31N 50°22' W 000°49'1818.6
2014-Sep-13 14:33N 50°39' W 000°59'1110.9
2014-Sep-13 13:33N 50°49' W 001°06'0 0.0
2014-Sep-13 12:33N 50°49' W 001°06'4 4.2
2014-Sep-13 11:33N 50°45' W 001°05'4419.8
2014-Sep-13 09:21N 50°04' W 000°39'1518.5
2014-Sep-13 08:33N 49°50' W 000°31'1918.9
2014-Sep-13 07:33N 49°32' W 000°22'1615.8
2014-Sep-13 06:34N 49°17' W 000°15'0 0.1
2014-Sep-13 05:33N 49°17' W 000°15'0 0.1
2014-Sep-13 04:34N 49°17' W 000°15'1313.1
2014-Sep-13 03:34N 49°30' W 000°20'1514.5
2014-Sep-13 02:34N 49°44' W 000°28'3714.8
2014-Sep-13 00:05N 50°18' W 000°46'815.7
2014-Sep-12 23:34N 50°26' W 000°51'1615.7
2014-Sep-12 22:33N 50°41' W 000°58'9 9.1
2014-Sep-12 21:33N 50°49' W 001°06'0 0.0
2014-Sep-12 20:33N 50°49' W 001°06'5 5.3
2014-Sep-12 19:34N 50°44' W 001°03'1818.0
2014-Sep-12 18:34N 50°27' W 000°52'1919.2
2014-Sep-12 17:33N 50°09' W 000°42'1919.0
2014-Sep-12 16:33N 49°51' W 000°32'1919.4
2014-Sep-12 15:33N 49°33' W 000°21'1616.2
2014-Sep-12 14:33N 49°17' W 000°15'0 0.0
2014-Sep-12 13:33N 49°17' W 000°15'3 2.6
2014-Sep-12 12:33N 49°20' W 000°14'2020.3
2014-Sep-12 11:33N 49°39' W 000°24'3918.9
2014-Sep-12 09:29N 50°16' W 000°45'1920.2
2014-Sep-12 08:33N 50°34' W 000°55'1616.2
2014-Sep-12 07:34N 50°48' W 001°07'1 0.9
2014-Sep-12 06:34N 50°49' W 001°06'0 0.4
2014-Sep-12 05:34N 50°49' W 001°06'1313.2
2014-Sep-12 04:33N 50°36' W 000°59'1111.4
2014-Sep-12 03:33N 50°26' W 000°52'3511.5
2014-Sep-12 00:33N 49°54' W 000°32'1111.0
2014-Sep-11 23:33N 49°44' W 000°25'1211.6
2014-Sep-11 22:34N 49°33' W 000°19'1211.7
2014-Sep-11 21:34N 49°21' W 000°15'4 4.0
2014-Sep-11 20:33N 49°17' W 000°15'0 0.0
2014-Sep-11 19:33N 49°17' W 000°15'1010.4
2014-Sep-11 18:33N 49°28' W 000°18'1919.2
2014-Sep-11 17:33N 49°45' W 000°29'4018.6
2014-Sep-11 15:24N 50°23' W 000°50'1618.9
2014-Sep-11 14:33N 50°38' W 000°59'1211.7
2014-Sep-11 13:33N 50°49' W 001°06'0 0.0
2014-Sep-11 12:33N 50°49' W 001°06'5 5.0
2014-Sep-11 11:33N 50°44' W 001°04'2120.4
2014-Sep-11 10:32N 50°24' W 000°51'4020.4
2014-Sep-11 08:33N 49°46' W 000°31'2019.5
2014-Sep-11 07:33N 49°29' W 000°19'1111.4
2014-Sep-11 06:33N 49°17' W 000°15'0 0.0
2014-Sep-11 05:33N 49°17' W 000°15'0 0.1
2014-Sep-11 04:33N 49°17' W 000°15'1616.3
2014-Sep-11 03:33N 49°33' W 000°18'5115.3
2014-Sep-11 00:14N 50°22' W 000°44'1116.1
2014-Sep-10 23:33N 50°31' W 000°53'1515.5
2014-Sep-10 22:33N 50°44' W 001°05'4 4.4
2014-Sep-10 21:33N 50°49' W 001°06'0 0.0
2014-Sep-10 20:33N 50°49' W 001°06'6 6.1
2014-Sep-10 19:33N 50°43' W 001°01'5719.0
2014-Sep-10 16:33N 49°49' W 000°33'1919.2
2014-Sep-10 15:34N 49°32' W 000°22'1514.9
2014-Sep-10 14:33N 49°17' W 000°15'0 0.0
2014-Sep-10 13:34N 49°17' W 000°15'0 0.0
2014-Sep-10 12:33N 49°17' W 000°15'0 0.1
2014-Sep-10 11:33N 49°17' W 000°15'0 0.0
2014-Sep-10 10:33N 49°17' W 000°15'0 0.0
2014-Sep-10 09:33N 49°17' W 000°15'0 0.0
2014-Sep-10 08:33N 49°17' W 000°15'0 0.0
2014-Sep-10 07:33N 49°17' W 000°15'0 0.0
2014-Sep-10 06:33N 49°17' W 000°15'0 0.1
2014-Sep-10 05:33N 49°17' W 000°15'0 0.0
2014-Sep-10 04:33N 49°17' W 000°15'1211.8
2014-Sep-10 03:34N 49°29' W 000°17'1515.4
2014-Sep-10 02:33N 49°43' W 000°28'1614.6
2014-Sep-10 01:26N 49°58' W 000°37'2915.2
2014-Sep-09 23:32N 50°25' W 000°53'1616.3
2014-Sep-09 22:33N 50°40' W 001°00'9 9.0
2014-Sep-09 21:34N 50°49' W 001°06'  
Track history (hours):
 
Tides and Currents Weather Stations Pressure Air Temp Water Temp Dewpoint Dewpoint Depression Visibility Wind Speed Wind Dir Waves Ship Positions

Mont Saint Michel

Last reported at 2014-Sep-19 21:34 UTC. Time now 2014-Sep-19 21:58 UTC.
Position N 50°43' W 001°01'.

Length 173 m; beam 29 m.

Type: Ship. MMSI: 227023100.

Date/timePositionNaut miles runAvg speedWind from/ knotsBaromVisibWave heightAir tempDewpointWater temp
2014-Sep-19 21:34N 50°43' W 001°01'6 6.2
2014-Sep-19 20:33N 50°49' W 001°06'0 0.0
2014-Sep-19 19:34N 50°49' W 001°06'0 0.0
2014-Sep-19 18:34N 50°49' W 001°06'5 4.5
2014-Sep-19 17:34N 50°44' W 001°04'1716.7
2014-Sep-19 16:33N 50°29' W 000°53'1717.0
2014-Sep-19 15:33N 50°13' W 000°44'2120.8
2014-Sep-19 14:33N 49°53' W 000°33'1313.1
2014-Sep-19 13:33N 49°41' W 000°25'1818.5
2014-Sep-19 12:33N 49°24' W 000°15'7 6.6
2014-Sep-19 11:34N 49°17' W 000°15'0 0.0
2014-Sep-19 10:33N 49°17' W 000°15'0 0.0
2014-Sep-19 09:33N 49°17' W 000°15'0 0.0
2014-Sep-19 08:33N 49°17' W 000°15'0 0.0
2014-Sep-19 07:33N 49°17' W 000°15'0 0.0
2014-Sep-19 06:33N 49°17' W 000°15'0 0.0
2014-Sep-19 05:33N 49°17' W 000°15'1010.1
2014-Sep-19 04:33N 49°27' W 000°17'1211.7
2014-Sep-19 03:33N 49°38' W 000°23'1212.0
2014-Sep-19 02:33N 49°50' W 000°29'1411.8
2014-Sep-19 01:20N 50°03' W 000°36'1113.8
2014-Sep-19 00:31N 50°14' W 000°42'1616.6
2014-Sep-18 23:33N 50°28' W 000°52'1616.4
2014-Sep-18 22:33N 50°44' W 001°02'6 5.6
2014-Sep-18 21:34N 50°49' W 001°06'0 0.0
2014-Sep-18 20:34N 50°49' W 001°06'4 3.6
2014-Sep-18 19:33N 50°45' W 001°05'1919.2
2014-Sep-18 18:33N 50°28' W 000°53'1919.2
2014-Sep-18 17:33N 50°10' W 000°42'1918.9
2014-Sep-18 16:33N 49°52' W 000°31'1918.5
2014-Sep-18 15:33N 49°35' W 000°22'1717.2
2014-Sep-18 14:33N 49°18' W 000°15'1 0.8
2014-Sep-18 13:33N 49°17' W 000°15'2 2.2
2014-Sep-18 12:33N 49°20' W 000°15'1918.6
2014-Sep-18 11:33N 49°37' W 000°25'1717.1
2014-Sep-18 10:32N 49°54' W 000°32'2318.2
2014-Sep-18 09:15N 50°15' W 000°45'1319.0
2014-Sep-18 08:33N 50°28' W 000°53'1919.1
2014-Sep-18 07:34N 50°45' W 001°05'4 3.6
2014-Sep-18 06:33N 50°49' W 001°06'0 0.1
2014-Sep-18 05:33N 50°49' W 001°06'1212.0
2014-Sep-18 04:33N 50°38' W 000°58'1110.8
2014-Sep-18 03:33N 50°27' W 000°52'1310.8
2014-Sep-18 02:22N 50°16' W 000°45'1010.8
2014-Sep-18 01:24N 50°06' W 000°39'911.1
2014-Sep-18 00:33N 49°57' W 000°35'1111.2
2014-Sep-17 23:33N 49°46' W 000°29'1111.2
2014-Sep-17 22:33N 49°36' W 000°23'1111.5
2014-Sep-17 21:33N 49°25' W 000°17'8 7.8
2014-Sep-17 20:33N 49°17' W 000°15'0 0.0
2014-Sep-17 19:33N 49°17' W 000°15'1010.4
2014-Sep-17 18:33N 49°28' W 000°18'1818.5
2014-Sep-17 17:33N 49°45' W 000°28'1918.9
2014-Sep-17 16:33N 50°03' W 000°38'1919.3
2014-Sep-17 15:33N 50°21' W 000°48'1919.2
2014-Sep-17 14:33N 50°39' W 000°59'1111.0
2014-Sep-17 13:33N 50°49' W 001°06'0 0.0
2014-Sep-17 12:33N 50°49' W 001°06'5 5.1
2014-Sep-17 11:34N 50°44' W 001°03'1717.3
2014-Sep-17 10:33N 50°28' W 000°54'2518.9
2014-Sep-17 09:15N 50°04' W 000°42'1319.5
2014-Sep-17 08:34N 49°52' W 000°34'2019.6
2014-Sep-17 07:34N 49°34' W 000°22'1716.9
2014-Sep-17 06:33N 49°17' W 000°15'0 0.0
2014-Sep-17 05:33N 49°17' W 000°15'0 0.1
2014-Sep-17 04:33N 49°17' W 000°15'1514.9
2014-Sep-17 03:33N 49°32' W 000°19'1716.6
2014-Sep-17 02:34N 49°47' W 000°29'1716.7
2014-Sep-17 01:33N 50°03' W 000°37'2216.7
2014-Sep-17 00:13N 50°24' W 000°50'1117.0
2014-Sep-16 23:33N 50°35' W 000°55'1514.7
2014-Sep-16 22:33N 50°48' W 001°07'1 1.2
2014-Sep-16 21:33N 50°49' W 001°06'0 0.0
2014-Sep-16 20:33N 50°49' W 001°06'4 4.1
2014-Sep-16 19:33N 50°45' W 001°05'1918.9
2014-Sep-16 18:33N 50°28' W 000°51'2019.5
2014-Sep-16 17:33N 50°10' W 000°40'1919.4
2014-Sep-16 16:33N 49°52' W 000°29'1919.0
2014-Sep-16 15:33N 49°33' W 000°20'1716.5
2014-Sep-16 14:33N 49°17' W 000°15'0 0.1
2014-Sep-16 13:33N 49°17' W 000°15'2 2.0
2014-Sep-16 12:33N 49°19' W 000°15'2020.3
2014-Sep-16 11:34N 49°39' W 000°25'2020.0
2014-Sep-16 10:33N 49°57' W 000°37'2820.1
2014-Sep-16 09:10N 50°23' W 000°51'1219.5
2014-Sep-16 08:33N 50°35' W 000°57'1515.2
2014-Sep-16 07:33N 50°49' W 001°06'0 0.1
2014-Sep-16 06:33N 50°49' W 001°06'0 0.0
2014-Sep-16 05:33N 50°49' W 001°06'1312.6
2014-Sep-16 04:33N 50°37' W 000°58'1111.2
2014-Sep-16 03:33N 50°27' W 000°52'1110.9
2014-Sep-16 02:33N 50°17' W 000°45'1111.4
2014-Sep-16 01:33N 50°06' W 000°40'1211.5
2014-Sep-16 00:33N 49°55' W 000°34'1111.5
2014-Sep-15 23:33N 49°44' W 000°27'1211.6
2014-Sep-15 22:33N 49°33' W 000°22'1211.8
2014-Sep-15 21:33N 49°22' W 000°15'5 4.7
2014-Sep-15 20:33N 49°17' W 000°15'0 0.0
2014-Sep-15 19:33N 49°17' W 000°15'0 0.0
2014-Sep-15 18:33N 49°17' W 000°15'0 0.0
2014-Sep-15 17:33N 49°17' W 000°15'0 0.0
2014-Sep-15 16:33N 49°17' W 000°15'0 0.0
2014-Sep-15 15:33N 49°17' W 000°15'0 0.0
2014-Sep-15 14:33N 49°17' W 000°15'0 0.0
2014-Sep-15 13:33N 49°17' W 000°15'3 2.8
2014-Sep-15 12:33N 49°20' W 000°14'1817.7
2014-Sep-15 11:33N 49°37' W 000°24'5719.1
2014-Sep-15 08:33N 50°31' W 000°54'1817.6
2014-Sep-15 07:33N 50°47' W 001°06'2 2.0
2014-Sep-15 06:33N 50°49' W 001°06'0 0.1
2014-Sep-15 05:34N 50°49' W 001°06'1312.7
2014-Sep-15 04:33N 50°37' W 000°58'1211.8
2014-Sep-15 03:33N 50°26' W 000°53'3411.3
2014-Sep-15 00:32N 49°54' W 000°31'1111.2
2014-Sep-14 23:33N 49°44' W 000°25'1111.2
2014-Sep-14 22:33N 49°34' W 000°19'1111.5
2014-Sep-14 21:33N 49°22' W 000°15'5 5.0
2014-Sep-14 20:33N 49°17' W 000°15'0 0.0
2014-Sep-14 19:32N 49°17' W 000°15'0 0.0
2014-Sep-14 18:33N 49°17' W 000°15'0 0.0
2014-Sep-14 17:33N 49°17' W 000°15'0 0.0
2014-Sep-14 16:32N 49°17' W 000°15'0 0.0
2014-Sep-14 15:33N 49°17' W 000°15'0 0.0
2014-Sep-14 14:33N 49°17' W 000°15'0 0.0
2014-Sep-14 13:33N 49°17' W 000°15'4 4.2
2014-Sep-14 12:33N 49°21' W 000°14'1616.1
2014-Sep-14 11:33N 49°37' W 000°23'5618.6
2014-Sep-14 08:33N 50°29' W 000°54'1817.8
2014-Sep-14 07:33N 50°45' W 001°05'4 3.8
2014-Sep-14 06:34N 50°49' W 001°06'0 0.1
2014-Sep-14 05:33N 50°49' W 001°06'1312.6
2014-Sep-14 04:33N 50°37' W 000°58'1211.7
2014-Sep-14 03:33N 50°26' W 000°52'6711.2
2014-Sep-13 21:34N 49°23' W 000°16'6 5.6
2014-Sep-13 20:33N 49°17' W 000°15'0 0.0
2014-Sep-13 19:33N 49°17' W 000°15'1211.9
2014-Sep-13 18:33N 49°29' W 000°19'1918.8
2014-Sep-13 17:34N 49°47' W 000°29'1918.4
2014-Sep-13 16:33N 50°04' W 000°39'1918.6
2014-Sep-13 15:31N 50°22' W 000°49'1818.6
2014-Sep-13 14:33N 50°39' W 000°59'1110.9
2014-Sep-13 13:33N 50°49' W 001°06'0 0.0
2014-Sep-13 12:33N 50°49' W 001°06'4 4.2
2014-Sep-13 11:33N 50°45' W 001°05'4419.8
2014-Sep-13 09:21N 50°04' W 000°39'1518.5
2014-Sep-13 08:33N 49°50' W 000°31'1918.9
2014-Sep-13 07:33N 49°32' W 000°22'1615.8
2014-Sep-13 06:34N 49°17' W 000°15'0 0.1
2014-Sep-13 05:33N 49°17' W 000°15'0 0.1
2014-Sep-13 04:34N 49°17' W 000°15'1313.1
2014-Sep-13 03:34N 49°30' W 000°20'1514.5
2014-Sep-13 02:34N 49°44' W 000°28'3714.8
2014-Sep-13 00:05N 50°18' W 000°46'815.7
2014-Sep-12 23:34N 50°26' W 000°51'1615.7
2014-Sep-12 22:33N 50°41' W 000°58'9 9.1
2014-Sep-12 21:33N 50°49' W 001°06'0 0.0
2014-Sep-12 20:33N 50°49' W 001°06'5 5.3
2014-Sep-12 19:34N 50°44' W 001°03'1818.0
2014-Sep-12 18:34N 50°27' W 000°52'1919.2
2014-Sep-12 17:33N 50°09' W 000°42'1919.0
2014-Sep-12 16:33N 49°51' W 000°32'1919.4
2014-Sep-12 15:33N 49°33' W 000°21'1616.2
2014-Sep-12 14:33N 49°17' W 000°15'0 0.0
2014-Sep-12 13:33N 49°17' W 000°15'3 2.6
2014-Sep-12 12:33N 49°20' W 000°14'2020.3
2014-Sep-12 11:33N 49°39' W 000°24'3918.9
2014-Sep-12 09:29N 50°16' W 000°45'1920.2
2014-Sep-12 08:33N 50°34' W 000°55'1616.2
2014-Sep-12 07:34N 50°48' W 001°07'1 0.9
2014-Sep-12 06:34N 50°49' W 001°06'0 0.4
2014-Sep-12 05:34N 50°49' W 001°06'1313.2
2014-Sep-12 04:33N 50°36' W 000°59'1111.4
2014-Sep-12 03:33N 50°26' W 000°52'3511.5
2014-Sep-12 00:33N 49°54' W 000°32'1111.0
2014-Sep-11 23:33N 49°44' W 000°25'1211.6
2014-Sep-11 22:34N 49°33' W 000°19'1211.7
2014-Sep-11 21:34N 49°21' W 000°15'4 4.0
2014-Sep-11 20:33N 49°17' W 000°15'0 0.0
2014-Sep-11 19:33N 49°17' W 000°15'1010.4
2014-Sep-11 18:33N 49°28' W 000°18'1919.2
2014-Sep-11 17:33N 49°45' W 000°29'4018.6
2014-Sep-11 15:24N 50°23' W 000°50'1618.9
2014-Sep-11 14:33N 50°38' W 000°59'1211.7
2014-Sep-11 13:33N 50°49' W 001°06'0 0.0
2014-Sep-11 12:33N 50°49' W 001°06'5 5.0
2014-Sep-11 11:33N 50°44' W 001°04'2120.4
2014-Sep-11 10:32N 50°24' W 000°51'4020.4
2014-Sep-11 08:33N 49°46' W 000°31'2019.5
2014-Sep-11 07:33N 49°29' W 000°19'1111.4
2014-Sep-11 06:33N 49°17' W 000°15'0 0.0
2014-Sep-11 05:33N 49°17' W 000°15'0 0.1
2014-Sep-11 04:33N 49°17' W 000°15'1616.3
2014-Sep-11 03:33N 49°33' W 000°18'5115.3
2014-Sep-11 00:14N 50°22' W 000°44'1116.1
2014-Sep-10 23:33N 50°31' W 000°53'1515.5
2014-Sep-10 22:33N 50°44' W 001°05'4 4.4
2014-Sep-10 21:33N 50°49' W 001°06'0 0.0
2014-Sep-10 20:33N 50°49' W 001°06'6 6.1
2014-Sep-10 19:33N 50°43' W 001°01'5719.0
2014-Sep-10 16:33N 49°49' W 000°33'1919.2
2014-Sep-10 15:34N 49°32' W 000°22'1514.9
2014-Sep-10 14:33N 49°17' W 000°15'0 0.0
2014-Sep-10 13:34N 49°17' W 000°15'0 0.0
2014-Sep-10 12:33N 49°17' W 000°15'0 0.1
2014-Sep-10 11:33N 49°17' W 000°15'0 0.0
2014-Sep-10 10:33N 49°17' W 000°15'0 0.0
2014-Sep-10 09:33N 49°17' W 000°15'0 0.0
2014-Sep-10 08:33N 49°17' W 000°15'0 0.0
2014-Sep-10 07:33N 49°17' W 000°15'0 0.0
2014-Sep-10 06:33N 49°17' W 000°15'0 0.1
2014-Sep-10 05:33N 49°17' W 000°15'0 0.0
2014-Sep-10 04:33N 49°17' W 000°15'1211.8
2014-Sep-10 03:34N 49°29' W 000°17'1515.4
2014-Sep-10 02:33N 49°43' W 000°28'1614.6
2014-Sep-10 01:26N 49°58' W 000°37'2915.2
2014-Sep-09 23:32N 50°25' W 000°53'1616.3
2014-Sep-09 22:33N 50°40' W 001°00'9 9.0
2014-Sep-09 21:34N 50°49' W 001°06'  

Dump ship's entire track history